createdAt,value
2022-10-30T00:00:25.498Z,96.19
2022-10-30T00:02:29.069Z,96.19
2022-10-30T00:04:32.908Z,96.00
2022-10-30T00:06:36.529Z,95.78
2022-10-30T00:08:40.136Z,96.27
2022-10-30T00:10:45.685Z,96.45
2022-10-30T00:12:49.333Z,95.96
2022-10-30T00:14:53.058Z,95.89
2022-10-30T00:16:58.047Z,96.33
2022-10-30T00:19:01.730Z,95.46
2022-10-30T00:21:10.456Z,95.61
2022-10-30T00:23:14.178Z,96.09
2022-10-30T00:25:17.941Z,96.18
2022-10-30T00:27:21.669Z,96.02
2022-10-30T00:29:26.522Z,95.90
2022-10-30T00:31:30.176Z,96.89
2022-10-30T00:33:35.238Z,96.95
2022-10-30T00:35:40.109Z,96.74
2022-10-30T00:37:43.633Z,97.26
2022-10-30T00:39:47.248Z,97.67
2022-10-30T00:41:53.469Z,97.36
2022-10-30T00:43:57.192Z,97.13
2022-10-30T00:46:04.588Z,97.54
2022-10-30T00:48:08.210Z,96.74
2022-10-30T00:50:18.266Z,96.71
2022-10-30T00:52:24.737Z,96.78
2022-10-30T00:54:28.609Z,96.13
2022-10-30T00:56:33.225Z,96.14
2022-10-30T00:58:41.638Z,95.92
2022-10-30T01:00:51.019Z,95.71
2022-10-30T01:02:55.695Z,95.90
2022-10-30T01:04:59.618Z,96.39
2022-10-30T01:07:12.119Z,96.69
2022-10-30T01:09:16.406Z,96.86
2022-10-30T01:11:20.149Z,96.72
2022-10-30T01:13:25.115Z,97.44
2022-10-30T01:15:34.856Z,97.63
2022-10-30T01:18:04.701Z,97.48
2022-10-30T01:20:34.514Z,97.35
2022-10-30T01:22:57.416Z,97.34
2022-10-30T01:25:13.575Z,97.68
2022-10-30T01:27:38.814Z,96.98
2022-10-30T01:29:57.023Z,97.15
2022-10-30T01:32:20.820Z,96.71
2022-10-30T01:34:35.130Z,97.17
2022-10-30T01:36:43.347Z,96.38
2022-10-30T01:38:52.979Z,96.58
2022-10-30T01:40:56.712Z,97.04
2022-10-30T01:43:01.812Z,97.41
2022-10-30T01:45:08.880Z,97.43
2022-10-30T01:47:30.192Z,97.17
2022-10-30T01:49:49.004Z,97.54
2022-10-30T01:52:00.122Z,96.75
2022-10-30T01:54:16.576Z,97.07
2022-10-30T01:56:30.768Z,96.95
2022-10-30T01:58:46.278Z,96.83
2022-10-30T02:00:54.948Z,96.56
2022-10-30T02:02:59.494Z,96.71
2022-10-30T02:05:03.915Z,96.95
2022-10-30T02:07:07.923Z,96.43
2022-10-30T02:09:19.489Z,95.69
2022-10-30T02:11:28.361Z,95.48
2022-10-30T02:13:32.577Z,96.22
2022-10-30T02:15:36.944Z,96.28
2022-10-30T02:17:41.676Z,95.49
2022-10-30T02:19:45.139Z,96.08
2022-10-30T02:21:50.454Z,96.32
2022-10-30T02:23:55.383Z,96.97
2022-10-30T02:25:59.041Z,96.46
2022-10-30T02:28:03.900Z,96.46
2022-10-30T02:30:09.509Z,96.92
2022-10-30T02:32:13.144Z,97.24
2022-10-30T02:34:16.642Z,97.17
2022-10-30T02:36:20.501Z,96.68
2022-10-30T02:38:26.358Z,97.51
2022-10-30T02:40:30.000Z,96.63
2022-10-30T02:42:33.854Z,97.16
2022-10-30T02:44:37.511Z,97.57
2022-10-30T02:46:42.331Z,97.57
2022-10-30T02:48:46.513Z,97.60
2022-10-30T02:50:51.609Z,97.87
2022-10-30T02:52:55.643Z,97.12
2022-10-30T02:55:00.793Z,97.71
2022-10-30T02:57:05.443Z,97.39
2022-10-30T02:59:09.196Z,97.46
2022-10-30T03:01:15.603Z,97.37
2022-10-30T03:03:23.047Z,97.20
2022-10-30T03:05:27.928Z,97.19
2022-10-30T03:07:31.547Z,96.50
2022-10-30T03:09:35.140Z,96.85
2022-10-30T03:11:40.961Z,96.40
2022-10-30T03:13:45.473Z,97.36
2022-10-30T03:15:48.928Z,97.61
2022-10-30T03:17:52.996Z,97.54
2022-10-30T03:19:56.681Z,97.25
2022-10-30T03:22:00.249Z,96.82
2022-10-30T03:24:03.865Z,97.71
2022-10-30T03:26:07.745Z,97.17
2022-10-30T03:28:26.462Z,96.13
2022-10-30T03:30:30.198Z,96.10
2022-10-30T03:32:39.678Z,95.89
2022-10-30T03:34:43.198Z,95.47
2022-10-30T03:36:46.854Z,95.31
2022-10-30T03:38:50.399Z,95.75
2022-10-30T03:40:55.896Z,95.29
2022-10-30T03:43:00.650Z,94.89
2022-10-30T03:45:06.379Z,95.34
2022-10-30T03:49:20.563Z,95.47
2022-10-30T03:51:24.422Z,95.96
2022-10-30T03:53:28.785Z,95.90
2022-10-30T03:55:32.059Z,95.45
2022-10-30T03:57:38.278Z,95.76
2022-10-30T03:59:52.217Z,96.30
2022-10-30T04:02:15.592Z,95.97
2022-10-30T04:04:19.176Z,96.09
2022-10-30T04:06:22.537Z,96.67
2022-10-30T04:08:25.983Z,97.13
2022-10-30T04:10:29.555Z,96.67
2022-10-30T04:12:35.219Z,97.07
2022-10-30T04:14:38.543Z,96.64
2022-10-30T04:16:41.808Z,96.83
2022-10-30T04:18:46.566Z,97.47
2022-10-30T04:20:49.912Z,96.71
2022-10-30T04:22:58.033Z,97.17
2022-10-30T04:25:01.556Z,96.79
2022-10-30T04:27:09.633Z,97.34
2022-10-30T04:29:13.947Z,96.47
2022-10-30T04:31:17.533Z,96.83
2022-10-30T04:33:21.143Z,96.37
2022-10-30T04:35:31.084Z,96.50
2022-10-30T04:37:35.311Z,96.64
2022-10-30T04:39:42.380Z,96.26
2022-10-30T04:41:53.662Z,96.13
2022-10-30T04:44:03.293Z,96.06
2022-10-30T04:46:08.833Z,95.44
2022-10-30T04:48:13.885Z,94.28
2022-10-30T04:50:18.728Z,91.04
2022-10-30T04:52:23.649Z,90.59
2022-10-30T04:54:28.830Z,89.49
2022-10-30T04:56:33.571Z,88.66
2022-10-30T04:58:37.388Z,89.14
2022-10-30T05:00:43.133Z,89.61
2022-10-30T05:02:51.195Z,90.16
2022-10-30T05:04:54.960Z,90.57
2022-10-30T05:06:59.523Z,91.68
2022-10-30T05:09:05.137Z,92.87
2022-10-30T05:11:12.201Z,93.72
2022-10-30T05:13:15.953Z,94.10
2022-10-30T05:15:19.687Z,95.24
2022-10-30T05:17:24.234Z,95.79
2022-10-30T05:19:28.004Z,96.53
2022-10-30T05:21:33.613Z,97.55
2022-10-30T05:23:37.207Z,98.71
2022-10-30T05:25:43.947Z,99.80
2022-10-30T05:27:49.177Z,99.65
2022-10-30T05:29:55.638Z,100.00
2022-10-30T05:31:59.372Z,100.00
2022-10-30T05:34:14.120Z,100.00
2022-10-30T05:36:18.356Z,100.00
2022-10-30T05:38:22.044Z,100.00
2022-10-30T05:40:27.392Z,100.00
2022-10-30T05:42:32.396Z,100.00
2022-10-30T05:44:59.673Z,100.00
2022-10-30T05:47:02.624Z,100.00
2022-10-30T05:49:09.687Z,100.00
2022-10-30T05:51:13.576Z,100.00
2022-10-30T05:53:21.938Z,100.00
2022-10-30T05:55:26.140Z,100.00
2022-10-30T05:57:46.747Z,100.00
2022-10-30T05:59:50.406Z,100.00
2022-10-30T06:01:53.862Z,100.00
2022-10-30T06:03:57.514Z,100.00
2022-10-30T06:06:01.174Z,100.00
2022-10-30T06:08:06.179Z,100.00
2022-10-30T06:10:11.344Z,100.00
2022-10-30T06:12:24.920Z,100.00
2022-10-30T06:15:05.637Z,100.00
2022-10-30T06:17:09.606Z,100.00
2022-10-30T06:19:36.965Z,100.00
2022-10-30T06:21:59.071Z,100.00
2022-10-30T06:24:14.156Z,100.00
2022-10-30T06:26:28.496Z,100.00
2022-10-30T06:28:37.636Z,100.00
2022-10-30T06:30:43.089Z,100.00
2022-10-30T06:32:47.174Z,100.00
2022-10-30T06:34:50.749Z,100.00
2022-10-30T06:36:55.219Z,100.00
2022-10-30T06:38:59.163Z,100.00
2022-10-30T06:41:07.974Z,100.00
2022-10-30T06:43:34.750Z,100.00
2022-10-30T06:45:43.467Z,100.00
2022-10-30T06:47:47.028Z,100.00
2022-10-30T06:49:50.763Z,100.00
2022-10-30T06:51:54.498Z,100.00
2022-10-30T06:53:58.576Z,100.00
2022-10-30T06:56:17.448Z,100.00
2022-10-30T06:58:40.245Z,100.00
2022-10-30T07:03:30.287Z,100.00
2022-10-30T07:05:33.893Z,100.00
2022-10-30T07:07:37.953Z,100.00
2022-10-30T07:09:42.617Z,100.00
2022-10-30T07:11:46.829Z,100.00
2022-10-30T07:14:01.705Z,100.00
2022-10-30T07:16:25.192Z,100.00
2022-10-30T07:18:28.612Z,100.00
2022-10-30T07:20:36.192Z,100.00
2022-10-30T07:22:40.660Z,100.00
2022-10-30T07:24:45.224Z,100.00
2022-10-30T07:27:00.055Z,100.00
2022-10-30T07:29:11.677Z,100.00
2022-10-30T07:31:29.003Z,100.00
2022-10-30T07:34:07.792Z,100.00
2022-10-30T07:36:18.385Z,100.00
2022-10-30T07:38:49.168Z,100.00
2022-10-30T07:41:04.680Z,100.00
2022-10-30T07:43:25.962Z,100.00
2022-10-30T07:45:38.197Z,100.00
2022-10-30T07:48:10.676Z,100.00
2022-10-30T07:50:25.328Z,100.00
2022-10-30T07:52:33.812Z,100.00
2022-10-30T07:54:38.165Z,100.00
2022-10-30T07:57:04.389Z,100.00
2022-10-30T07:59:26.613Z,100.00
2022-10-30T08:01:53.191Z,100.00
2022-10-30T08:04:14.210Z,100.00
2022-10-30T08:06:23.225Z,100.00
2022-10-30T08:08:30.068Z,100.00
2022-10-30T08:10:54.563Z,100.00
2022-10-30T08:12:58.107Z,100.00
2022-10-30T08:15:02.347Z,100.00
2022-10-30T08:17:07.879Z,100.00
2022-10-30T08:19:11.471Z,100.00
2022-10-30T08:21:15.127Z,100.00
2022-10-30T08:23:31.598Z,100.00
2022-10-30T08:25:40.026Z,100.00
2022-10-30T08:27:52.907Z,100.00
2022-10-30T08:29:56.593Z,100.00
2022-10-30T08:32:00.289Z,100.00
2022-10-30T08:34:23.395Z,100.00
2022-10-30T08:36:31.940Z,100.00
2022-10-30T08:38:37.873Z,100.00
2022-10-30T08:41:09.522Z,100.00
2022-10-30T08:43:20.860Z,100.00
2022-10-30T08:45:29.880Z,100.00
2022-10-30T08:47:43.744Z,100.00
2022-10-30T08:49:47.459Z,100.00
2022-10-30T08:51:55.905Z,100.00
2022-10-30T08:54:01.544Z,100.00
2022-10-30T08:56:05.690Z,100.00
2022-10-30T08:58:21.622Z,100.00
2022-10-30T09:00:25.903Z,100.00
2022-10-30T09:02:56.101Z,100.00
2022-10-30T09:05:32.223Z,100.00
2022-10-30T09:07:58.325Z,100.00
2022-10-30T09:10:32.049Z,100.00
2022-10-30T09:12:37.259Z,99.47
2022-10-30T09:14:40.996Z,98.21
2022-10-30T09:16:46.051Z,97.61
2022-10-30T09:18:52.086Z,96.81
2022-10-30T09:20:56.290Z,96.49
2022-10-30T09:23:01.509Z,95.82
2022-10-30T09:25:06.404Z,96.19
2022-10-30T09:27:30.316Z,93.22
2022-10-30T09:29:36.978Z,92.90
2022-10-30T09:31:44.556Z,92.92
2022-10-30T09:33:51.952Z,93.03
2022-10-30T09:36:22.086Z,92.54
2022-10-30T09:38:26.496Z,92.79
2022-10-30T09:40:55.582Z,91.90
2022-10-30T09:43:09.419Z,91.92
2022-10-30T09:45:55.481Z,92.11
2022-10-30T09:48:13.144Z,91.48
2022-10-30T09:50:48.304Z,88.58
2022-10-30T09:53:02.189Z,88.86
2022-10-30T09:55:29.292Z,87.22
2022-10-30T09:57:41.136Z,85.52
2022-10-30T09:59:59.763Z,84.70
2022-10-30T10:02:17.521Z,81.85
2022-10-30T10:04:29.265Z,83.60
2022-10-30T10:06:58.722Z,83.93
2022-10-30T10:09:18.468Z,83.96
2022-10-30T10:11:43.216Z,81.72
2022-10-30T10:13:51.892Z,81.55
2022-10-30T10:16:01.257Z,82.39
2022-10-30T10:18:08.625Z,82.31
2022-10-30T10:20:18.590Z,82.17
2022-10-30T10:22:23.844Z,82.01
2022-10-30T10:24:31.122Z,81.65
2022-10-30T10:26:48.854Z,77.99
2022-10-30T10:29:13.837Z,78.82
2022-10-30T10:31:29.076Z,77.65
2022-10-30T10:33:57.800Z,78.48
2022-10-30T10:36:15.220Z,76.28
2022-10-30T10:38:31.404Z,77.05
2022-10-30T10:40:49.330Z,78.33
2022-10-30T10:43:06.781Z,78.54
2022-10-30T10:45:27.115Z,79.13
2022-10-30T10:47:53.248Z,78.57
2022-10-30T10:50:15.312Z,79.69
2022-10-30T10:52:23.173Z,81.43
2022-10-30T10:54:33.196Z,83.10
2022-10-30T10:56:41.211Z,84.22
2022-10-30T10:58:52.647Z,85.49
2022-10-30T11:00:59.707Z,85.81
2022-10-30T11:03:11.663Z,87.18
2022-10-30T11:05:26.197Z,87.60
2022-10-30T11:07:33.971Z,87.18
2022-10-30T11:09:37.706Z,85.69
2022-10-30T11:11:43.739Z,85.97
2022-10-30T11:13:47.607Z,84.96
2022-10-30T11:15:59.920Z,84.58
2022-10-30T11:18:08.678Z,83.93
2022-10-30T11:20:19.518Z,83.49
2022-10-30T11:22:28.787Z,82.87
2022-10-30T11:24:34.416Z,82.52
2022-10-30T11:26:37.991Z,82.72
2022-10-30T11:28:51.510Z,81.43
2022-10-30T11:31:19.166Z,81.18
2022-10-30T11:33:30.884Z,79.38
2022-10-30T11:35:43.954Z,80.08
2022-10-30T11:37:49.137Z,80.61
2022-10-30T11:40:04.290Z,79.99
2022-10-30T11:42:14.923Z,80.47
2022-10-30T11:44:19.273Z,81.63
2022-10-30T11:46:25.327Z,82.67
2022-10-30T11:48:34.471Z,83.00
2022-10-30T11:50:38.327Z,82.60
2022-10-30T11:52:45.544Z,83.70
2022-10-30T11:54:54.048Z,83.49
2022-10-30T11:56:59.812Z,83.95
2022-10-30T11:59:05.606Z,84.48
2022-10-30T12:01:17.137Z,84.49
2022-10-30T12:03:32.219Z,84.64
2022-10-30T12:05:43.613Z,84.93
2022-10-30T12:07:48.688Z,85.19
2022-10-30T12:09:53.351Z,84.60
2022-10-30T12:12:03.041Z,84.83
2022-10-30T12:14:16.969Z,84.30
2022-10-30T12:16:21.131Z,84.50
2022-10-30T12:20:40.594Z,84.64
2022-10-30T12:22:49.793Z,84.29
2022-10-30T12:25:05.385Z,83.77
2022-10-30T12:27:19.807Z,83.53
2022-10-30T12:30:02.734Z,82.08
2022-10-30T12:32:07.151Z,81.73
2022-10-30T12:34:35.496Z,82.04
2022-10-30T12:36:48.690Z,82.51
2022-10-30T12:38:55.858Z,82.18
2022-10-30T12:41:14.338Z,82.52
2022-10-30T12:43:24.627Z,82.84
2022-10-30T12:45:34.090Z,82.70
2022-10-30T12:47:47.046Z,82.74
2022-10-30T12:49:58.971Z,83.56
2022-10-30T12:52:12.969Z,84.70
2022-10-30T12:54:26.005Z,85.41
2022-10-30T12:56:35.537Z,85.72
2022-10-30T12:58:46.243Z,86.47
2022-10-30T13:00:56.496Z,85.94
2022-10-30T13:03:05.659Z,86.06
2022-10-30T13:05:22.890Z,85.70
2022-10-30T13:07:33.072Z,85.04
2022-10-30T13:09:42.308Z,85.15
2022-10-30T13:11:53.130Z,84.72
2022-10-30T13:14:02.129Z,85.16
2022-10-30T13:16:12.362Z,84.59
2022-10-30T13:18:18.799Z,84.51
2022-10-30T13:20:23.402Z,83.77
2022-10-30T13:22:38.591Z,84.54
2022-10-30T13:24:52.037Z,85.01
2022-10-30T13:27:01.750Z,84.88
2022-10-30T13:29:16.493Z,85.08
2022-10-30T13:31:29.701Z,85.11
2022-10-30T13:33:36.653Z,84.94
2022-10-30T13:35:48.769Z,85.27
2022-10-30T13:38:02.211Z,85.26
2022-10-30T13:40:17.934Z,85.26
2022-10-30T13:42:38.385Z,84.72
2022-10-30T13:44:53.253Z,84.89
2022-10-30T13:47:12.967Z,85.37
2022-10-30T13:49:34.619Z,85.39
2022-10-30T13:51:44.252Z,85.45
2022-10-30T13:53:57.382Z,85.18
2022-10-30T13:56:01.210Z,84.25
2022-10-30T13:58:10.345Z,84.48
2022-10-30T14:00:20.439Z,85.09
2022-10-30T14:02:38.780Z,85.07
2022-10-30T14:04:51.503Z,84.11
2022-10-30T14:07:15.719Z,84.36
2022-10-30T14:09:30.536Z,84.21
2022-10-30T14:11:34.224Z,83.83
2022-10-30T14:13:52.628Z,84.09
2022-10-30T14:16:01.568Z,84.33
2022-10-30T14:18:27.013Z,84.56
2022-10-30T14:20:30.728Z,84.67
2022-10-30T14:22:36.149Z,84.73
2022-10-30T14:24:46.833Z,83.27
2022-10-30T14:26:53.964Z,84.04
2022-10-30T14:28:58.227Z,84.18
2022-10-30T14:31:06.397Z,84.11
2022-10-30T14:33:43.522Z,83.65
2022-10-30T14:35:50.151Z,84.41
2022-10-30T14:37:58.488Z,83.70
2022-10-30T14:40:36.221Z,83.58
2022-10-30T14:42:49.585Z,83.45
2022-10-30T14:45:12.371Z,83.52
2022-10-30T14:47:39.785Z,84.58
2022-10-30T14:49:48.308Z,84.54
2022-10-30T14:52:05.054Z,84.67
2022-10-30T14:54:18.737Z,85.13
2022-10-30T14:56:34.796Z,85.75
2022-10-30T14:58:39.719Z,85.43
2022-10-30T15:00:44.966Z,85.13
2022-10-30T15:02:56.506Z,84.83
2022-10-30T15:05:24.711Z,85.46
2022-10-30T15:07:35.772Z,85.35
2022-10-30T15:09:55.065Z,85.57
2022-10-30T15:12:14.107Z,85.62
2022-10-30T15:14:39.942Z,84.34
2022-10-30T15:16:52.533Z,84.22
2022-10-30T15:19:01.995Z,84.31
2022-10-30T15:21:08.140Z,84.21
2022-10-30T15:23:20.386Z,84.15
2022-10-30T15:25:26.155Z,83.89
2022-10-30T15:27:36.712Z,84.54
2022-10-30T15:29:41.566Z,83.69
2022-10-30T15:31:45.354Z,84.54
2022-10-30T15:33:50.907Z,83.96
2022-10-30T15:35:54.342Z,84.40
2022-10-30T15:38:00.061Z,85.01
2022-10-30T15:40:18.534Z,85.05
2022-10-30T15:42:23.721Z,85.22
2022-10-30T15:44:31.821Z,84.96
2022-10-30T15:46:35.603Z,84.86
2022-10-30T15:48:42.419Z,84.98
2022-10-30T15:50:54.056Z,84.92
2022-10-30T15:52:58.110Z,84.99
2022-10-30T15:55:06.481Z,85.08
2022-10-30T15:58:01.708Z,85.14
2022-10-30T15:59:53.114Z,85.69
2022-10-30T16:01:58.747Z,85.21
2022-10-30T16:04:03.188Z,86.13
2022-10-30T16:06:16.866Z,85.78
2022-10-30T16:08:24.130Z,85.59
2022-10-30T16:10:31.416Z,86.13
2022-10-30T16:12:36.878Z,86.11
2022-10-30T16:14:44.019Z,86.54
2022-10-30T16:16:51.795Z,86.15
2022-10-30T16:19:00.896Z,86.75
2022-10-30T16:21:08.626Z,86.38
2022-10-30T16:23:14.202Z,86.44
2022-10-30T16:25:19.597Z,86.62
2022-10-30T16:27:26.072Z,87.79
2022-10-30T16:29:31.681Z,87.64
2022-10-30T16:31:37.830Z,87.36
2022-10-30T16:33:44.959Z,87.65
2022-10-30T16:35:55.713Z,88.00
2022-10-30T16:38:02.830Z,88.63
2022-10-30T16:40:15.060Z,88.56
2022-10-30T16:42:22.894Z,88.54
2022-10-30T16:44:30.558Z,88.42
2022-10-30T16:46:39.423Z,88.36
2022-10-30T16:48:48.354Z,88.96
2022-10-30T16:50:53.240Z,89.53
2022-10-30T16:53:07.874Z,89.55
2022-10-30T16:55:18.580Z,89.82
2022-10-30T16:57:28.164Z,90.59
2022-10-30T16:59:39.140Z,90.35
2022-10-30T17:01:43.144Z,90.16
2022-10-30T17:03:50.310Z,90.59
2022-10-30T17:06:04.893Z,91.25
2022-10-30T17:08:31.283Z,91.97
2022-10-30T17:10:37.672Z,90.97
2022-10-30T17:12:41.496Z,91.97
2022-10-30T17:14:50.046Z,91.86
2022-10-30T17:16:56.409Z,91.81
2022-10-30T17:19:03.831Z,91.78
2022-10-30T17:21:12.382Z,92.02
2022-10-30T17:23:21.084Z,92.12
2022-10-30T17:25:36.260Z,92.04
2022-10-30T17:27:47.455Z,91.82
2022-10-30T17:29:51.254Z,92.56
2022-10-30T17:32:00.200Z,92.28
2022-10-30T17:34:18.679Z,93.10
2022-10-30T17:36:22.253Z,93.10
2022-10-30T17:38:26.398Z,92.50
2022-10-30T17:40:30.577Z,92.41
2022-10-30T17:42:34.751Z,92.89
2022-10-30T17:44:38.693Z,92.78
2022-10-30T17:46:44.262Z,92.77
2022-10-30T17:48:47.922Z,92.81
2022-10-30T17:50:53.045Z,93.41
2022-10-30T17:52:57.188Z,92.93
2022-10-30T17:55:03.006Z,93.81
2022-10-30T17:57:06.763Z,93.41
2022-10-30T17:59:10.226Z,92.78
2022-10-30T18:01:17.446Z,93.14
2022-10-30T18:03:21.126Z,92.88
2022-10-30T18:05:29.155Z,93.13
2022-10-30T18:07:34.223Z,92.82
2022-10-30T18:09:38.179Z,91.98
2022-10-30T18:11:41.941Z,92.75
2022-10-30T18:13:45.668Z,92.75
2022-10-30T18:15:55.654Z,92.21
2022-10-30T18:17:59.604Z,92.83
2022-10-30T18:20:03.153Z,92.45
2022-10-30T18:22:06.663Z,92.43
2022-10-30T18:24:16.747Z,92.94
2022-10-30T18:26:22.983Z,93.16
2022-10-30T18:28:26.581Z,93.02
2022-10-30T18:30:30.271Z,93.21
2022-10-30T18:32:34.195Z,93.58
2022-10-30T18:34:38.077Z,93.57
2022-10-30T18:36:41.753Z,94.25
2022-10-30T18:38:45.364Z,94.67
2022-10-30T18:40:51.031Z,94.21
2022-10-30T18:42:54.804Z,94.45
2022-10-30T18:44:58.199Z,94.90
2022-10-30T18:47:03.324Z,94.97
2022-10-30T18:49:07.719Z,94.92
2022-10-30T18:51:17.331Z,94.71
2022-10-30T18:53:21.348Z,94.54
2022-10-30T18:55:27.272Z,94.75
2022-10-30T18:57:32.531Z,94.44
2022-10-30T18:59:36.436Z,94.06
2022-10-30T19:01:40.159Z,94.51
2022-10-30T19:03:44.879Z,94.06
2022-10-30T19:05:50.184Z,94.53
2022-10-30T19:07:53.952Z,94.12
2022-10-30T19:09:59.627Z,94.74
2022-10-30T19:12:03.441Z,94.35
2022-10-30T19:14:13.774Z,94.54
2022-10-30T19:16:19.217Z,94.52
2022-10-30T19:18:25.979Z,94.32
2022-10-30T19:20:44.052Z,94.35
2022-10-30T19:22:53.495Z,93.68
2022-10-30T19:24:57.246Z,94.45
2022-10-30T19:27:00.711Z,94.29
2022-10-30T19:29:04.777Z,93.70
2022-10-30T19:31:15.628Z,93.77
2022-10-30T19:33:20.710Z,93.95
2022-10-30T19:35:27.359Z,94.35
2022-10-30T19:37:31.151Z,93.91
2022-10-30T19:39:35.382Z,93.93
2022-10-30T19:41:40.245Z,93.77
2022-10-30T19:43:44.262Z,94.14
2022-10-30T19:45:51.278Z,93.64
2022-10-30T19:48:02.349Z,93.50
2022-10-30T19:50:23.173Z,93.23
2022-10-30T19:52:29.376Z,93.14
2022-10-30T19:54:34.896Z,93.17
2022-10-30T19:56:39.805Z,92.85
2022-10-30T19:58:43.945Z,92.26
2022-10-30T20:00:47.972Z,92.31
2022-10-30T20:02:52.715Z,92.65
2022-10-30T20:04:57.904Z,92.21
2022-10-30T20:07:02.744Z,92.19
2022-10-30T20:09:07.561Z,92.25
2022-10-30T20:11:11.555Z,92.79
2022-10-30T20:13:15.791Z,92.85
2022-10-30T20:15:23.983Z,92.89
2022-10-30T20:17:29.490Z,93.45
2022-10-30T20:19:33.386Z,92.95
2022-10-30T20:21:49.059Z,93.27
2022-10-30T20:23:53.756Z,92.70
2022-10-30T20:26:01.750Z,93.11
2022-10-30T20:28:19.846Z,92.55
2022-10-30T20:30:24.445Z,93.38
2022-10-30T20:32:29.796Z,93.39
2022-10-30T20:34:33.522Z,93.39
2022-10-30T20:36:37.278Z,92.88
2022-10-30T20:38:42.575Z,93.29
2022-10-30T20:40:46.934Z,93.36
2022-10-30T20:42:50.707Z,93.30
2022-10-30T20:44:54.562Z,93.39
2022-10-30T20:46:58.088Z,93.54
2022-10-30T20:49:16.760Z,94.00
2022-10-30T20:51:22.709Z,94.02
2022-10-30T20:53:26.368Z,94.14
2022-10-30T20:55:31.989Z,94.69
2022-10-30T20:59:41.636Z,94.62
2022-10-30T21:01:46.180Z,94.71
2022-10-30T21:03:51.219Z,94.87
2022-10-30T21:05:58.878Z,94.97
2022-10-30T21:08:03.441Z,94.91
2022-10-30T21:10:09.018Z,95.04
2022-10-30T21:12:15.179Z,94.53
2022-10-30T21:14:19.571Z,95.25
2022-10-30T21:16:24.093Z,94.90
2022-10-30T21:18:28.070Z,95.03
2022-10-30T21:20:32.439Z,95.16
2022-10-30T21:22:37.093Z,94.52
2022-10-30T21:24:41.279Z,94.78
2022-10-30T21:26:45.649Z,94.53
2022-10-30T21:28:51.094Z,94.74
2022-10-30T21:30:55.824Z,95.05
2022-10-30T21:33:01.127Z,94.79
2022-10-30T21:35:07.740Z,94.79
2022-10-30T21:37:12.174Z,94.36
2022-10-30T21:39:16.485Z,94.69
2022-10-30T21:41:22.745Z,94.85
2022-10-30T21:43:27.361Z,95.19
2022-10-30T21:45:32.797Z,95.24
2022-10-30T21:47:37.324Z,94.75
2022-10-30T21:49:48.907Z,95.14
2022-10-30T21:51:53.423Z,94.87
2022-10-30T21:53:58.250Z,95.18
2022-10-30T21:56:06.439Z,94.93
2022-10-30T21:58:10.552Z,95.15
2022-10-30T22:00:16.589Z,94.95
2022-10-30T22:02:22.376Z,95.19
2022-10-30T22:04:26.525Z,95.34
2022-10-30T22:06:31.719Z,95.61
2022-10-30T22:08:36.437Z,95.87
2022-10-30T22:10:41.052Z,95.80
2022-10-30T22:12:46.661Z,96.34
2022-10-30T22:14:51.502Z,96.26
2022-10-30T22:16:55.366Z,96.56
2022-10-30T22:19:03.052Z,96.36
2022-10-30T22:21:10.217Z,97.16
2022-10-30T22:23:14.803Z,96.96
2022-10-30T22:25:19.264Z,97.36
2022-10-30T22:27:26.715Z,97.15
2022-10-30T22:29:31.558Z,97.50
2022-10-30T22:31:35.971Z,97.29
2022-10-30T22:33:40.722Z,97.33
2022-10-30T22:35:47.063Z,96.91
2022-10-30T22:37:51.208Z,97.92
2022-10-30T22:39:55.418Z,98.16
2022-10-30T22:41:59.823Z,97.42
2022-10-30T22:44:04.236Z,97.95
2022-10-30T22:46:09.221Z,98.25
2022-10-30T22:48:13.988Z,99.06
2022-10-30T22:50:18.801Z,98.83
2022-10-30T22:52:24.854Z,99.02
2022-10-30T22:54:29.379Z,99.13
2022-10-30T22:56:35.360Z,99.30
2022-10-30T22:58:53.955Z,99.32
2022-10-30T23:01:09.335Z,99.36
2022-10-30T23:03:13.896Z,98.94
2022-10-30T23:05:18.163Z,99.32
2022-10-30T23:07:27.414Z,99.65
2022-10-30T23:09:31.829Z,99.92
2022-10-30T23:11:36.575Z,98.83
2022-10-30T23:13:41.896Z,99.01
2022-10-30T23:15:46.521Z,99.17
2022-10-30T23:17:51.021Z,99.55
2022-10-30T23:19:55.995Z,99.54
2022-10-30T23:22:04.525Z,99.65
2022-10-30T23:24:10.556Z,99.76
2022-10-30T23:26:16.895Z,100.00
2022-10-30T23:28:21.037Z,100.00
2022-10-30T23:30:25.308Z,99.79
2022-10-30T23:32:29.670Z,100.00
2022-10-30T23:34:34.466Z,100.00
2022-10-30T23:36:39.883Z,100.00
2022-10-30T23:38:44.314Z,100.00
2022-10-30T23:41:01.130Z,100.00
2022-10-30T23:43:05.939Z,100.00
2022-10-30T23:45:11.470Z,100.00
2022-10-30T23:47:15.753Z,100.00
2022-10-30T23:49:21.896Z,100.00
2022-10-30T23:51:27.794Z,100.00
2022-10-30T23:53:32.877Z,100.00
2022-10-30T23:55:37.292Z,100.00
2022-10-30T23:57:43.512Z,100.00
2022-10-30T23:59:48.729Z,100.00
